Pasadena — V2FA7 — position and weather

sailwx.info

Track history (hours):
 
Tides and Currents Weather Stations Pressure Air Temp Water Temp Dewpoint Dewpoint Depression Visibility Wind Speed Wind Dir Waves Ship Positions

Pasadena

Last reported at 2018-Feb-12 19:33 UTC. Time now 2018-Feb-19 22:14 UTC.
Position N 37°50' E 015°45'.

Length 90 m; draft 5.9 m.

Type: Cargo ship. MMSI: 304228000.

Date/timePositionNaut miles runAvg speedWind from/ knotsBaromVisibWave heightAir tempDewpointWater temp
2018-Feb-12 19:33N 37°50' E 015°45'110.0
2018-Feb-12 19:26N 37°51' E 015°44'12 8.4
2018-Feb-12 18:02N 37°59' E 015°34'110.6
2018-Feb-12 17:54N 38°01' E 015°34'21 7.9
2018-Feb-12 15:17N 38°21' E 015°31'310.4
2018-Feb-12 14:58N 38°21' E 015°27'610.1
2018-Feb-12 14:21N 38°21' E 015°19'410.3
2018-Feb-12 14:00N 38°20' E 015°15'510.3
2018-Feb-12 13:30N 38°20' E 015°08'8010.5
2018-Feb-12 05:51N 38°28' E 013°26'  
2018-Feb-09 21:00N 43°19' E 004°59'  
Track history (hours):
 
Tides and Currents Weather Stations Pressure Air Temp Water Temp Dewpoint Dewpoint Depression Visibility Wind Speed Wind Dir Waves Ship Positions

Pasadena

Last reported at 2018-Feb-12 19:33 UTC. Time now 2018-Feb-19 22:14 UTC.
Position N 37°50' E 015°45'.

Length 90 m; draft 5.9 m.

Type: Cargo ship. MMSI: 304228000.

Date/timePositionNaut miles runAvg speedWind from/ knotsBaromVisibWave heightAir tempDewpointWater temp
2018-Feb-12 19:33N 37°50' E 015°45'110.0
2018-Feb-12 19:26N 37°51' E 015°44'12 8.4
2018-Feb-12 18:02N 37°59' E 015°34'110.6
2018-Feb-12 17:54N 38°01' E 015°34'21 7.9
2018-Feb-12 15:17N 38°21' E 015°31'310.4
2018-Feb-12 14:58N 38°21' E 015°27'610.1
2018-Feb-12 14:21N 38°21' E 015°19'410.3
2018-Feb-12 14:00N 38°20' E 015°15'510.3
2018-Feb-12 13:30N 38°20' E 015°08'8010.5
2018-Feb-12 05:51N 38°28' E 013°26'  
2018-Feb-09 21:00N 43°19' E 004°59'  

Dump ship's entire track history